createdAt,value
2019-04-14T00:01:56.593Z,18.70
2019-04-14T00:04:48.709Z,17.93
2019-04-14T00:07:40.556Z,17.20
2019-04-14T00:10:31.460Z,17.10
2019-04-14T00:13:23.828Z,16.90
2019-04-14T00:16:14.780Z,16.33
2019-04-14T00:19:06.530Z,13.90
2019-04-14T00:21:58.673Z,18.17
2019-04-14T00:24:49.059Z,19.20
2019-04-14T00:27:40.823Z,16.10
2019-04-14T00:30:31.740Z,19.37
2019-04-14T00:33:23.919Z,16.27
2019-04-14T00:36:23.998Z,19.07
2019-04-14T00:39:25.068Z,20.70
2019-04-14T00:42:25.621Z,16.87
2019-04-14T00:45:43.448Z,16.97
2019-04-14T00:48:29.764Z,16.93
2019-04-14T00:51:21.995Z,12.50
2019-04-14T00:54:13.159Z,11.70
2019-04-14T00:57:03.380Z,14.97
2019-04-14T00:59:54.994Z,17.83
2019-04-14T01:02:45.819Z,14.17
2019-04-14T01:05:37.497Z,15.23
2019-04-14T01:08:27.499Z,13.47
2019-04-14T01:11:18.143Z,12.57
2019-04-14T01:14:10.078Z,14.63
2019-04-14T01:17:00.699Z,13.90
2019-04-14T01:19:52.677Z,12.83
2019-04-14T01:22:44.472Z,15.33
2019-04-14T01:25:34.819Z,12.97
2019-04-14T01:28:26.659Z,13.73
2019-04-14T01:31:18.442Z,15.07
2019-04-14T01:34:08.880Z,13.40
2019-04-14T01:36:59.020Z,13.53
2019-04-14T01:39:50.223Z,15.77
2019-04-14T01:42:42.073Z,13.33
2019-04-14T01:45:33.907Z,15.73
2019-04-14T01:48:24.099Z,13.67
2019-04-14T01:51:41.862Z,14.10
2019-04-14T01:54:47.759Z,14.27
2019-04-14T01:58:03.221Z,15.40
2019-04-14T02:04:44.349Z,15.87
2019-04-14T02:07:34.186Z,16.00
2019-04-14T02:10:25.818Z,14.93
2019-04-14T02:13:16.046Z,11.23
2019-04-14T02:16:21.069Z,13.53
2019-04-14T02:18:58.628Z,15.83
2019-04-14T02:21:49.895Z,14.07
2019-04-14T02:24:39.766Z,15.40
2019-04-14T02:27:29.846Z,14.17
2019-04-14T02:30:25.116Z,12.87
2019-04-14T02:33:40.337Z,12.73
2019-04-14T02:36:36.272Z,16.30
2019-04-14T02:39:32.793Z,13.67
2019-04-14T02:42:26.180Z,14.17
2019-04-14T02:45:10.403Z,10.50
2019-04-14T02:48:03.578Z,12.40
2019-04-14T02:50:47.849Z,16.17
2019-04-14T02:53:44.320Z,13.63
2019-04-14T02:56:30.143Z,18.03
2019-04-14T02:59:19.705Z,12.00
2019-04-14T03:02:22.956Z,11.27
2019-04-14T03:05:02.535Z,12.07
2019-04-14T03:08:03.334Z,14.30
2019-04-14T03:10:47.319Z,14.30
2019-04-14T03:14:01.171Z,19.57
2019-04-14T03:17:11.142Z,12.80
2019-04-14T03:23:10.752Z,12.47
2019-04-14T03:25:49.774Z,12.23
2019-04-14T03:34:52.014Z,10.17
2019-04-14T03:40:09.535Z,12.10
2019-04-14T03:43:13.256Z,13.80
2019-04-14T03:45:59.326Z,12.17
2019-04-14T03:51:46.130Z,11.40
2019-04-14T03:54:26.714Z,11.73
2019-04-14T03:56:59.853Z,11.20
2019-04-14T03:59:50.019Z,15.40
2019-04-14T04:02:40.266Z,11.53
2019-04-14T04:05:32.360Z,11.37
2019-04-14T04:08:24.346Z,10.60
2019-04-14T04:11:15.065Z,9.53
2019-04-14T04:14:05.948Z,12.10
2019-04-14T04:17:25.346Z,14.37
2019-04-14T04:20:52.585Z,10.80
2019-04-14T04:23:55.930Z,11.00
2019-04-14T04:27:14.006Z,12.17
2019-04-14T04:30:10.345Z,11.73
2019-04-14T04:33:20.086Z,15.27
2019-04-14T04:36:35.706Z,14.40
2019-04-14T04:39:28.204Z,15.20
2019-04-14T04:42:19.752Z,14.37
2019-04-14T04:45:10.377Z,14.77
2019-04-14T04:48:02.311Z,15.47
2019-04-14T04:50:54.292Z,15.37
2019-04-14T04:53:46.199Z,15.33
2019-04-14T04:56:36.686Z,14.10
2019-04-14T04:59:27.688Z,11.97
2019-04-14T05:02:17.834Z,13.03
2019-04-14T05:05:44.990Z,17.03
2019-04-14T05:08:39.123Z,12.00
2019-04-14T05:11:36.906Z,11.27
2019-04-14T05:14:34.966Z,16.17
2019-04-14T05:17:25.629Z,12.50
2019-04-14T05:20:15.962Z,14.17
2019-04-14T05:23:07.985Z,13.93
2019-04-14T05:25:58.150Z,14.50
2019-04-14T05:28:48.467Z,12.53
2019-04-14T05:31:40.346Z,14.93
2019-04-14T05:34:30.724Z,13.53
2019-04-14T05:37:21.066Z,15.40
2019-04-14T05:40:12.119Z,14.90
2019-04-14T05:43:02.561Z,12.67
2019-04-14T05:45:54.391Z,15.50
2019-04-14T05:48:44.886Z,14.30
2019-04-14T05:51:35.466Z,15.77
2019-04-14T05:54:25.427Z,14.40
2019-04-14T05:57:16.126Z,10.97
2019-04-14T06:00:08.710Z,13.93
2019-04-14T06:02:59.399Z,13.27
2019-04-14T06:05:50.026Z,14.63
2019-04-14T06:08:41.386Z,15.87
2019-04-14T06:11:31.646Z,14.17
2019-04-14T06:14:21.904Z,15.27
2019-04-14T06:17:12.131Z,17.00
2019-04-14T06:20:02.213Z,12.50
2019-04-14T06:22:52.946Z,16.87
2019-04-14T06:25:43.904Z,15.43
2019-04-14T06:28:36.287Z,17.00
2019-04-14T06:31:40.106Z,14.80
2019-04-14T06:34:49.266Z,14.30
2019-04-14T06:37:52.164Z,14.73
2019-04-14T06:40:47.446Z,16.73
2019-04-14T06:43:48.262Z,14.73
2019-04-14T06:46:29.226Z,19.00
2019-04-14T06:49:19.046Z,15.57
2019-04-14T06:52:08.726Z,16.10
2019-04-14T06:54:58.755Z,17.27
2019-04-14T06:57:48.885Z,15.13
2019-04-14T07:00:39.787Z,17.07
2019-04-14T07:03:29.476Z,17.40
2019-04-14T07:06:19.949Z,16.97
2019-04-14T07:09:10.842Z,16.40
2019-04-14T07:12:01.079Z,13.97
2019-04-14T07:14:50.876Z,16.47
2019-04-14T07:17:41.847Z,16.87
2019-04-14T07:20:32.180Z,15.03
2019-04-14T07:23:22.704Z,16.13
2019-04-14T07:26:12.027Z,14.90
2019-04-14T07:29:02.162Z,17.37
2019-04-14T07:32:29.388Z,17.77
2019-04-14T07:35:37.778Z,16.10
2019-04-14T07:38:43.626Z,17.87
2019-04-14T07:41:46.686Z,15.53
2019-04-14T07:45:03.366Z,14.87
2019-04-14T07:48:19.006Z,22.03
2019-04-14T07:51:27.827Z,14.97
2019-04-14T07:54:23.467Z,12.93
2019-04-14T07:57:20.917Z,15.30
2019-04-14T08:00:26.326Z,13.23
2019-04-14T08:03:35.667Z,14.27
2019-04-14T08:06:25.727Z,12.33
2019-04-14T08:09:15.751Z,12.60
2019-04-14T08:12:06.806Z,15.43
2019-04-14T08:14:58.786Z,13.83
2019-04-14T08:17:49.882Z,13.73
2019-04-14T08:20:40.089Z,14.70
2019-04-14T08:23:30.526Z,15.77
2019-04-14T08:26:20.690Z,14.43
2019-04-14T08:29:11.447Z,13.63
2019-04-14T08:32:02.348Z,13.73
2019-04-14T08:34:52.906Z,10.77
2019-04-14T08:37:42.568Z,13.67
2019-04-14T08:40:32.606Z,18.03
2019-04-14T08:43:44.429Z,15.73
2019-04-14T08:46:46.167Z,15.17
2019-04-14T08:49:57.124Z,15.87
2019-04-14T08:52:55.768Z,14.77
2019-04-14T08:56:14.000Z,15.30
2019-04-14T08:59:26.181Z,12.93
2019-04-14T09:02:35.671Z,15.13
2019-04-14T09:05:33.708Z,16.37
2019-04-14T09:08:34.449Z,15.83
2019-04-14T09:11:31.287Z,15.10
2019-04-14T09:14:21.255Z,14.93
2019-04-14T09:17:11.307Z,16.97
2019-04-14T09:20:01.392Z,20.23
2019-04-14T09:22:52.246Z,18.80
2019-04-14T09:25:42.926Z,13.67
2019-04-14T09:28:33.687Z,15.37
2019-04-14T09:31:23.927Z,16.30
2019-04-14T09:34:14.378Z,15.60
2019-04-14T09:37:04.771Z,15.70
2019-04-14T09:39:55.626Z,15.10
2019-04-14T09:42:46.210Z,13.43
2019-04-14T09:45:36.583Z,13.40
2019-04-14T09:48:26.946Z,16.13
2019-04-14T09:51:18.168Z,12.40
2019-04-14T09:54:09.067Z,12.53
2019-04-14T09:56:59.487Z,16.63
2019-04-14T09:59:49.566Z,16.07
2019-04-14T10:02:39.366Z,15.40
2019-04-14T10:05:29.647Z,12.03
2019-04-14T10:08:20.567Z,15.33
2019-04-14T10:11:10.647Z,12.80
2019-04-14T10:14:00.728Z,15.00
2019-04-14T10:16:50.966Z,14.93
2019-04-14T10:19:41.527Z,14.50
2019-04-14T10:22:34.317Z,15.47
2019-04-14T10:25:23.230Z,14.60
2019-04-14T10:28:13.167Z,11.73
2019-04-14T10:31:03.910Z,13.70
2019-04-14T10:33:53.961Z,13.83
2019-04-14T10:36:43.789Z,14.97
2019-04-14T10:39:33.702Z,15.07
2019-04-14T10:42:24.390Z,15.07
2019-04-14T10:45:18.264Z,13.67
2019-04-14T10:48:06.871Z,14.33
2019-04-14T10:50:56.650Z,14.33
2019-04-14T10:53:46.608Z,13.33
2019-04-14T10:56:47.866Z,15.37
2019-04-14T10:59:38.066Z,12.00
2019-04-14T11:02:28.202Z,12.60
2019-04-14T11:05:18.306Z,14.83
2019-04-14T11:08:08.627Z,13.27
2019-04-14T11:10:58.754Z,15.90
2019-04-14T11:13:48.962Z,13.13
2019-04-14T11:16:39.126Z,16.30
2019-04-14T11:19:29.314Z,13.00
2019-04-14T11:22:19.966Z,10.60
2019-04-14T11:25:10.033Z,16.63
2019-04-14T11:28:00.593Z,12.37
2019-04-14T11:30:51.467Z,18.17
2019-04-14T11:34:12.566Z,15.37
2019-04-14T11:37:11.787Z,21.70
2019-04-14T11:40:03.199Z,12.73
2019-04-14T11:42:54.807Z,19.27
2019-04-14T11:45:44.954Z,17.60
2019-04-14T11:48:34.667Z,17.13
2019-04-14T11:51:24.907Z,19.90
2019-04-14T11:54:15.766Z,21.40
2019-04-14T11:57:07.506Z,19.93
2019-04-14T12:00:29.148Z,20.90
2019-04-14T12:03:32.503Z,23.17
2019-04-14T12:06:40.050Z,18.23
2019-04-14T12:09:36.746Z,19.40
2019-04-14T12:12:27.305Z,21.40
2019-04-14T12:15:36.402Z,19.30
2019-04-14T12:18:26.770Z,19.13
2019-04-14T12:21:17.432Z,19.57
2019-04-14T12:24:07.773Z,20.20
2019-04-14T12:26:58.150Z,21.83
2019-04-14T12:29:48.307Z,23.17
2019-04-14T12:32:39.014Z,24.30
2019-04-14T12:35:29.145Z,21.37
2019-04-14T12:38:19.148Z,17.30
2019-04-14T12:41:12.786Z,22.00
2019-04-14T12:44:22.327Z,16.27
2019-04-14T12:47:39.558Z,21.00
2019-04-14T12:50:26.986Z,22.80
2019-04-14T12:53:17.026Z,20.73
2019-04-14T12:56:07.445Z,19.17
2019-04-14T12:59:16.578Z,18.67
2019-04-14T13:02:19.788Z,20.37
2019-04-14T13:05:10.026Z,21.30
2019-04-14T13:08:00.205Z,24.97
2019-04-14T13:10:49.686Z,21.33
2019-04-14T13:13:40.117Z,22.80
2019-04-14T13:16:30.432Z,20.63
2019-04-14T13:19:20.227Z,20.43
2019-04-14T13:22:09.661Z,21.17
2019-04-14T13:24:59.508Z,16.83
2019-04-14T13:27:51.131Z,18.13
2019-04-14T13:30:43.606Z,18.20
2019-04-14T13:33:34.186Z,15.93
2019-04-14T13:36:25.826Z,20.03
2019-04-14T13:39:18.034Z,19.27
2019-04-14T13:42:08.430Z,19.60
2019-04-14T13:44:59.606Z,22.83
2019-04-14T13:47:49.866Z,23.77
2019-04-14T13:50:41.068Z,22.53
2019-04-14T13:53:31.146Z,23.00
2019-04-14T13:56:21.526Z,20.57
2019-04-14T13:59:12.365Z,17.87
2019-04-14T14:02:03.946Z,21.90
2019-04-14T14:04:53.668Z,26.43
2019-04-14T14:07:44.086Z,20.37
2019-04-14T14:10:34.346Z,21.00
2019-04-14T14:13:34.086Z,18.37
2019-04-14T14:16:41.958Z,21.23
2019-04-14T14:19:40.887Z,28.47
2019-04-14T14:23:08.119Z,20.90
2019-04-14T14:26:01.690Z,25.37
2019-04-14T14:28:52.007Z,25.97
2019-04-14T14:31:41.846Z,22.53
2019-04-14T14:34:31.767Z,21.90
2019-04-14T14:37:22.066Z,21.03
2019-04-14T14:40:13.273Z,18.50
2019-04-14T14:43:03.766Z,21.17
2019-04-14T14:46:12.767Z,23.50
2019-04-14T14:49:08.686Z,22.67
2019-04-14T14:52:06.211Z,16.57
2019-04-14T14:54:57.066Z,21.50
2019-04-14T14:57:47.207Z,22.20
2019-04-14T15:00:38.528Z,19.50
2019-04-14T15:03:30.337Z,29.67
2019-04-14T15:06:20.033Z,22.17
2019-04-14T15:09:10.186Z,24.33
2019-04-14T15:12:00.106Z,25.10
2019-04-14T15:14:50.571Z,26.97
2019-04-14T15:17:40.566Z,25.87
2019-04-14T15:20:30.487Z,28.30
2019-04-14T15:23:25.101Z,24.67
2019-04-14T15:26:12.447Z,19.37
2019-04-14T15:29:03.147Z,28.37
2019-04-14T15:31:53.050Z,28.43
2019-04-14T15:34:43.409Z,25.40
2019-04-14T15:37:33.386Z,23.67
2019-04-14T15:40:23.953Z,23.47
2019-04-14T15:43:13.786Z,29.57
2019-04-14T15:46:03.279Z,23.97
2019-04-14T15:48:53.787Z,27.17
2019-04-14T15:51:44.086Z,27.03
2019-04-14T15:54:34.086Z,33.63
2019-04-14T15:57:32.007Z,31.10
2019-04-14T16:00:55.877Z,29.43
2019-04-14T16:04:04.786Z,32.20
2019-04-14T16:07:16.447Z,31.00
2019-04-14T16:10:26.034Z,31.53
2019-04-14T16:13:28.928Z,37.63
2019-04-14T16:16:43.800Z,37.80
2019-04-14T16:19:38.066Z,29.13
2019-04-14T16:22:28.625Z,35.90
2019-04-14T16:25:18.306Z,29.20
2019-04-14T16:28:27.307Z,32.00
2019-04-14T16:31:35.586Z,39.33
2019-04-14T16:34:28.494Z,35.27
2019-04-14T16:37:18.166Z,36.33
2019-04-14T16:40:08.506Z,32.03
2019-04-14T16:42:58.800Z,31.97
2019-04-14T16:45:48.445Z,34.60
2019-04-14T16:48:38.370Z,38.47
2019-04-14T16:51:33.526Z,29.27
2019-04-14T16:54:44.626Z,45.83
2019-04-14T16:57:52.228Z,39.40
2019-04-14T17:00:44.648Z,36.23
2019-04-14T17:03:43.446Z,35.23
2019-04-14T17:06:34.207Z,36.77
2019-04-14T17:09:26.211Z,38.37
2019-04-14T17:12:27.646Z,31.73
2019-04-14T17:15:35.786Z,34.80
2019-04-14T17:18:50.289Z,36.37
2019-04-14T17:21:59.147Z,38.87
2019-04-14T17:25:03.466Z,32.70
2019-04-14T17:28:12.797Z,41.30
2019-04-14T17:31:09.646Z,46.03
2019-04-14T17:34:09.158Z,41.20
2019-04-14T17:37:34.567Z,34.73
2019-04-14T17:40:46.386Z,33.50
2019-04-14T17:43:40.572Z,33.57
2019-04-14T17:46:49.286Z,32.23
2019-04-14T17:50:02.916Z,36.70
2019-04-14T17:53:00.569Z,35.23
2019-04-14T17:56:25.486Z,40.13
2019-04-14T17:59:21.146Z,53.37
2019-04-14T18:02:20.066Z,35.03
2019-04-14T18:05:28.153Z,35.53
2019-04-14T18:08:33.387Z,35.80
2019-04-14T18:11:38.967Z,36.87
2019-04-14T18:14:40.226Z,43.33
2019-04-14T18:17:54.886Z,32.50
2019-04-14T18:20:47.446Z,44.60
2019-04-14T18:23:37.687Z,34.67
2019-04-14T18:26:27.926Z,34.07
2019-04-14T18:29:35.807Z,37.07
2019-04-14T18:32:36.146Z,34.80
2019-04-14T18:36:00.589Z,31.77
2019-04-14T18:39:08.530Z,34.33
2019-04-14T18:42:24.108Z,36.30
2019-04-14T18:45:37.614Z,38.90
2019-04-14T18:48:59.146Z,43.33
2019-04-14T18:52:12.126Z,41.73
2019-04-14T18:55:21.167Z,35.60
2019-04-14T18:58:31.796Z,36.97
2019-04-14T19:01:24.947Z,37.03
2019-04-14T19:04:18.126Z,46.30
2019-04-14T19:07:09.367Z,35.17
2019-04-14T19:10:00.136Z,38.03
2019-04-14T19:13:16.732Z,37.33
2019-04-14T19:16:20.013Z,31.57
2019-04-14T19:19:12.973Z,43.53
2019-04-14T19:22:04.546Z,38.67
2019-04-14T19:25:07.009Z,42.00
2019-04-14T19:27:49.562Z,44.20
2019-04-14T19:30:39.978Z,35.53
2019-04-14T19:33:31.986Z,38.90
2019-04-14T19:36:22.424Z,34.80
2019-04-14T19:39:14.213Z,33.60
2019-04-14T19:42:04.705Z,40.97
2019-04-14T19:44:56.546Z,39.70
2019-04-14T19:47:49.866Z,34.00
2019-04-14T19:50:41.017Z,37.60
2019-04-14T19:53:32.244Z,36.20
2019-04-14T19:56:23.985Z,35.23
2019-04-14T19:59:14.114Z,33.83
2019-04-14T20:02:04.908Z,37.77
2019-04-14T20:04:56.122Z,40.40
2019-04-14T20:07:47.609Z,40.03
2019-04-14T20:10:37.491Z,46.27
2019-04-14T20:13:29.406Z,41.67
2019-04-14T20:16:37.969Z,43.67
2019-04-14T20:19:52.069Z,37.93
2019-04-14T20:22:53.688Z,37.50
2019-04-14T20:26:11.083Z,36.37
2019-04-14T20:29:12.925Z,33.80
2019-04-14T20:32:13.529Z,36.73
2019-04-14T20:35:04.026Z,37.43
2019-04-14T20:37:53.820Z,40.30
2019-04-14T20:40:44.246Z,39.73
2019-04-14T20:43:34.886Z,41.93
2019-04-14T20:46:25.707Z,33.67
2019-04-14T20:49:15.662Z,40.00
2019-04-14T20:52:05.966Z,39.13
2019-04-14T20:54:56.293Z,37.97
2019-04-14T20:57:46.840Z,38.17
2019-04-14T21:00:36.749Z,43.20
2019-04-14T21:03:43.546Z,38.27
2019-04-14T21:06:44.426Z,37.50
2019-04-14T21:09:45.886Z,33.27
2019-04-14T21:13:00.447Z,34.67
2019-04-14T21:16:15.515Z,35.53
2019-04-14T21:19:12.306Z,32.80
2019-04-14T21:22:21.666Z,39.67
2019-04-14T21:25:34.166Z,39.63
2019-04-14T21:28:39.882Z,45.00
2019-04-14T21:31:40.267Z,46.83
2019-04-14T21:34:33.913Z,37.23
2019-04-14T21:37:37.006Z,42.57
2019-04-14T21:40:46.346Z,36.47
2019-04-14T21:43:36.751Z,42.90
2019-04-14T21:46:26.581Z,37.80
2019-04-14T21:49:16.832Z,35.10
2019-04-14T21:52:32.406Z,32.43
2019-04-14T21:55:23.269Z,38.73
2019-04-14T21:58:24.302Z,38.33
2019-04-14T22:01:53.707Z,34.73
2019-04-14T22:05:02.422Z,34.90
2019-04-14T22:08:05.227Z,31.43
2019-04-14T22:10:57.369Z,31.83
2019-04-14T22:13:47.148Z,37.67
2019-04-14T22:16:37.547Z,35.77
2019-04-14T22:19:27.449Z,39.00
2019-04-14T22:22:18.467Z,35.03
2019-04-14T22:25:08.886Z,33.40
2019-04-14T22:27:59.766Z,32.57
2019-04-14T22:30:49.672Z,29.47
2019-04-14T22:33:39.237Z,30.40
2019-04-14T22:36:30.166Z,29.93
2019-04-14T22:39:21.369Z,32.97
2019-04-14T22:42:11.666Z,29.60
2019-04-14T22:45:01.530Z,33.53
2019-04-14T22:47:52.106Z,32.30
2019-04-14T22:50:42.495Z,35.47
2019-04-14T22:53:44.586Z,30.07
2019-04-14T22:56:39.513Z,29.13
2019-04-14T22:59:26.526Z,29.00
2019-04-14T23:02:29.167Z,34.80
2019-04-14T23:05:42.026Z,29.63
2019-04-14T23:08:46.167Z,36.90
2019-04-14T23:11:52.391Z,32.47
2019-04-14T23:15:04.367Z,32.47
2019-04-14T23:18:19.129Z,35.77
2019-04-14T23:21:31.330Z,31.03
2019-04-14T23:24:24.722Z,33.17
2019-04-14T23:27:14.746Z,23.87
2019-04-14T23:30:04.246Z,37.93
2019-04-14T23:32:54.327Z,28.77
2019-04-14T23:35:43.807Z,26.60
2019-04-14T23:38:34.090Z,32.77
2019-04-14T23:41:24.728Z,33.30
2019-04-14T23:44:15.929Z,36.10
2019-04-14T23:47:06.487Z,30.83
2019-04-14T23:49:56.581Z,29.70
2019-04-14T23:52:46.806Z,25.93
2019-04-14T23:55:37.309Z,31.57
2019-04-14T23:58:27.373Z,44.50
